Time;durP1;ratioP1;P1;durP2;ratioP2;P2;SDS_P1;SDS_P2;PMS_P1;PMS_P2;Temp;Humidity;BMP_temperature;BMP_pressure;BME280_temperature;BME280_humidity;BME280_pressure;Samples;Min_cycle;Max_cycle;Signal;HPM_P1;HPM_P2
2022/03/23 00:01:27;;;;;;;27.27;14.48;;;20.20;30.20;;;;;;5074010;28;20492;-62
2022/03/23 00:03:55;;;;;;;23.20;13.95;;;20.00;30.10;;;;;;5075765;28;20043;-62
2022/03/23 00:06:22;;;;;;;21.40;14.00;;;19.90;30.20;;;;;;5077404;28;20032;-60
2022/03/23 00:08:50;;;;;;;21.48;13.23;;;19.80;30.40;;;;;;5079503;28;20574;-61
2022/03/23 00:11:19;;;;;;;16.70;12.30;;;19.60;30.60;;;;;;5065884;28;20890;-60
2022/03/23 00:13:46;;;;;;;19.15;13.38;;;19.50;30.70;;;;;;5069265;28;20131;-60
2022/03/23 00:16:15;;;;;;;21.15;13.80;;;19.50;30.90;;;;;;5073947;28;20052;-61
2022/03/23 00:18:42;;;;;;;21.65;13.40;;;19.40;30.90;;;;;;5077197;28;20040;-60
2022/03/23 00:21:09;;;;;;;22.63;13.05;;;19.20;30.90;;;;;;5075827;28;20036;-63
2022/03/23 00:23:36;;;;;;;19.73;13.55;;;19.20;31.10;;;;;;5074081;28;20075;-62
2022/03/23 00:26:03;;;;;;;20.63;11.98;;;19.10;31.20;;;;;;5071581;28;20151;-57
2022/03/23 00:28:30;;;;;;;20.63;12.98;;;19.00;31.30;;;;;;5074181;28;21038;-60
2022/03/23 00:30:59;;;;;;;26.60;13.80;;;18.90;31.40;;;;;;5075345;28;20040;-61
2022/03/23 00:33:27;;;;;;;21.77;13.43;;;18.80;31.60;;;;;;5074243;28;20121;-62
2022/03/23 00:35:55;;;;;;;22.52;12.65;;;18.70;32.20;;;;;;5066420;28;20071;-61
2022/03/23 00:38:23;;;;;;;19.27;11.50;;;18.70;31.80;;;;;;5076814;28;20614;-58
2022/03/23 00:40:50;;;;;;;18.92;12.00;;;18.60;31.80;;;;;;5071289;28;20048;-60
2022/03/23 00:43:18;;;;;;;21.05;13.02;;;18.50;31.90;;;;;;5073417;28;20354;-54
2022/03/23 00:45:45;;;;;;;18.67;13.43;;;18.50;32.30;;;;;;5069213;28;20051;-63
2022/03/23 00:48:13;;;;;;;17.02;11.52;;;18.40;32.10;;;;;;5075187;28;20125;-62
2022/03/23 00:50:42;;;;;;;21.60;12.23;;;18.40;32.20;;;;;;5064172;28;20049;-62
2022/03/23 00:53:09;;;;;;;16.40;11.18;;;18.30;32.10;;;;;;5071992;28;20040;-59
2022/03/23 00:55:36;;;;;;;19.33;11.15;;;18.30;32.30;;;;;;5072514;28;21151;-63
2022/03/23 00:58:04;;;;;;;24.20;11.35;;;18.30;32.30;;;;;;5073758;28;20393;-67
2022/03/23 01:00:31;;;;;;;22.48;11.48;;;18.20;32.40;;;;;;5069880;28;20068;-66
2022/03/23 01:03:01;;;;;;;17.27;11.20;;;18.20;32.30;;;;;;5064579;28;20040;-67
2022/03/23 01:05:28;;;;;;;18.05;11.15;;;18.20;32.30;;;;;;5079981;28;20060;-65
2022/03/23 01:07:57;;;;;;;19.75;12.02;;;18.10;32.30;;;;;;5079919;28;20983;-64
2022/03/23 01:10:25;;;;;;;17.70;10.38;;;18.10;32.20;;;;;;5092976;28;20056;-65
2022/03/23 01:12:54;;;;;;;15.93;11.02;;;18.00;32.30;;;;;;5079396;28;20051;-64
2022/03/23 01:15:22;;;;;;;15.40;10.93;;;18.00;32.50;;;;;;5080233;28;20048;-65
2022/03/23 01:17:50;;;;;;;17.90;11.32;;;17.90;32.50;;;;;;5081888;28;20044;-65
2022/03/23 01:20:21;;;;;;;16.92;11.85;;;17.90;32.40;;;;;;5076307;28;20044;-66
2022/03/23 01:22:48;;;;;;;18.17;10.32;;;17.80;32.30;;;;;;5076421;28;20420;-62
2022/03/23 01:25:18;;;;;;;12.90;8.52;;;17.70;32.40;;;;;;5074544;28;20416;-67
2022/03/23 01:27:46;;;;;;;13.43;9.05;;;17.70;33.60;;;;;;5076910;28;20055;-60
2022/03/23 01:30:15;;;;;;;15.88;8.27;;;17.90;34.70;;;;;;5080901;28;20048;-69
2022/03/23 01:32:44;;;;;;;12.77;8.13;;;18.20;34.90;;;;;;5060414;28;20181;-72
2022/03/23 01:35:11;;;;;;;13.88;8.88;;;18.60;34.80;;;;;;5077820;28;20067;-64
2022/03/23 01:37:39;;;;;;;11.05;7.50;;;18.90;34.60;;;;;;5079714;28;20059;-64
2022/03/23 01:40:09;;;;;;;9.88;7.47;;;19.20;34.30;;;;;;5080014;28;20481;-67
2022/03/23 01:42:41;;;;;;;9.27;7.03;;;19.50;34.10;;;;;;5076902;28;20423;-67
2022/03/23 01:45:09;;;;;;;16.67;7.57;;;19.80;33.80;;;;;;5076135;28;20750;-65
2022/03/23 01:47:38;;;;;;;8.95;6.28;;;20.00;33.70;;;;;;5069537;28;20120;-62
2022/03/23 01:50:07;;;;;;;12.73;6.50;;;20.20;33.30;;;;;;5075200;28;20052;-60
2022/03/23 01:52:35;;;;;;;7.32;6.45;;;20.50;33.00;;;;;;5076211;28;20044;-62
2022/03/23 01:55:05;;;;;;;9.10;6.00;;;20.60;32.70;;;;;;5075936;28;20051;-63
2022/03/23 01:57:35;;;;;;;7.25;5.15;;;20.80;32.50;;;;;;5077219;28;20078;-62
2022/03/23 02:00:05;;;;;;;23.27;6.90;;;21.00;32.30;;;;;;5073963;28;20119;-63
2022/03/23 02:02:41;;;;;;;6.32;5.28;;;21.10;32.20;;;;;;5075688;28;20052;-61
2022/03/23 02:05:11;;;;;;;9.25;5.68;;;21.30;32.10;;;;;;5077800;28;20812;-61
2022/03/23 02:07:40;;;;;;;10.23;5.95;;;21.40;31.90;;;;;;5077268;28;20774;-62
2022/03/23 02:10:08;;;;;;;13.77;6.65;;;21.50;31.80;;;;;;5078346;28;20032;-64
2022/03/23 02:12:47;;;;;;;12.60;6.05;;;21.60;31.70;;;;;;5075949;28;20069;-60
2022/03/23 02:15:18;;;;;;;8.88;4.93;;;21.80;31.60;;;;;;5075112;28;20415;-61
2022/03/23 02:17:46;;;;;;;7.63;5.63;;;21.80;31.40;;;;;;5092331;28;20036;-61
2022/03/23 02:20:14;;;;;;;8.95;5.10;;;22.00;32.00;;;;;;5078965;28;20117;-61
2022/03/23 02:22:43;;;;;;;9.45;6.18;;;22.10;31.30;;;;;;5075767;28;20123;-62
2022/03/23 02:25:11;;;;;;;8.40;6.45;;;22.10;31.10;;;;;;5075779;28;20040;-61
2022/03/23 02:27:40;;;;;;;4.93;3.83;;;22.20;31.00;;;;;;5082021;28;20555;-62
2022/03/23 02:30:10;;;;;;;6.60;5.40;;;22.30;31.00;;;;;;5075414;28;20109;-62
2022/03/23 02:32:37;;;;;;;5.53;4.57;;;22.40;30.90;;;;;;5079308;28;20049;-62
2022/03/23 02:35:07;;;;;;;6.30;5.70;;;22.40;30.70;;;;;;5070622;28;20039;-62
2022/03/23 02:37:35;;;;;;;5.13;4.57;;;22.50;30.70;;;;;;5079571;28;20052;-62
2022/03/23 02:40:04;;;;;;;6.47;4.43;;;22.50;30.60;;;;;;5078445;28;20518;-62
2022/03/23 02:42:31;;;;;;;5.63;4.28;;;22.60;30.60;;;;;;5073813;28;20070;-62
2022/03/23 02:44:59;;;;;;;5.63;4.03;;;22.60;30.50;;;;;;5074512;28;20508;-61
2022/03/23 02:47:26;;;;;;;10.02;5.72;;;22.70;30.40;;;;;;5078300;28;20048;-62
2022/03/23 02:49:53;;;;;;;4.97;4.13;;;22.70;30.40;;;;;;5073179;28;20056;-63
2022/03/23 02:52:21;;;;;;;6.07;4.25;;;22.70;30.50;;;;;;5080560;28;20123;-62
2022/03/23 03:03:44;;;;;;;3.72;3.35;;;22.90;30.20;;;;;;5073439;28;20044;-61
2022/03/23 03:06:11;;;;;;;3.00;2.80;;;22.90;30.20;;;;;;5077432;28;20078;-62
2022/03/23 03:08:47;;;;;;;5.03;4.55;;;22.90;30.10;;;;;;5077042;28;20072;-61
2022/03/23 03:11:16;;;;;;;4.35;3.95;;;22.90;30.10;;;;;;5074592;28;20086;-62
2022/03/23 03:13:48;;;;;;;3.30;3.00;;;23.00;30.10;;;;;;5072346;28;20040;-62
2022/03/23 03:16:15;;;;;;;2.88;2.67;;;23.00;30.10;;;;;;5076690;28;20048;-64
2022/03/23 03:18:43;;;;;;;3.45;3.15;;;23.00;30.10;;;;;;5075909;28;20425;-64
2022/03/23 03:21:12;;;;;;;4.30;3.83;;;23.00;30.10;;;;;;5076266;28;20048;-62
2022/03/23 03:23:41;;;;;;;5.28;2.63;;;23.00;30.10;;;;;;5073341;28;20309;-63
2022/03/23 03:26:09;;;;;;;5.85;4.32;;;23.10;30.30;;;;;;5076025;28;20257;-62
2022/03/23 03:28:38;;;;;;;7.85;3.30;;;23.10;30.40;;;;;;5074593;28;20060;-62
2022/03/23 03:31:08;;;;;;;4.03;3.58;;;23.10;30.40;;;;;;5075184;28;20681;-62
2022/03/23 03:33:36;;;;;;;2.45;2.35;;;23.10;30.40;;;;;;5070418;28;20032;-61
2022/03/23 03:36:03;;;;;;;3.40;3.13;;;23.10;30.40;;;;;;5076238;28;20045;-62
2022/03/23 03:38:31;;;;;;;3.85;2.35;;;23.10;30.40;;;;;;5073080;28;20048;-62
2022/03/23 03:40:59;;;;;;;12.73;2.45;;;23.10;30.50;;;;;;5077965;28;20086;-62
2022/03/23 03:43:26;;;;;;;1.92;1.80;;;23.20;30.50;;;;;;5074810;28;20055;-62
2022/03/23 03:45:53;;;;;;;3.20;3.00;;;23.10;30.50;;;;;;5079269;28;20037;-61
2022/03/23 03:48:22;;;;;;;2.85;2.65;;;23.20;30.60;;;;;;5076998;28;20048;-62
2022/03/23 03:50:50;;;;;;;4.22;3.30;;;23.20;30.60;;;;;;5074662;28;20040;-62
2022/03/23 03:53:17;;;;;;;4.20;3.50;;;23.20;30.60;;;;;;5076407;28;20583;-62
2022/03/23 03:55:45;;;;;;;4.00;2.22;;;23.20;30.60;;;;;;5074030;28;20041;-61
2022/03/23 03:58:14;;;;;;;2.40;2.25;;;23.20;30.60;;;;;;5075556;28;20140;-62
2022/03/23 04:00:41;;;;;;;3.47;2.80;;;23.20;30.50;;;;;;5073506;28;20036;-63
2022/03/23 04:03:08;;;;;;;2.47;2.28;;;23.20;30.50;;;;;;5078107;28;20056;-62
2022/03/23 04:05:37;;;;;;;2.78;2.53;;;23.20;30.50;;;;;;5074835;28;20056;-63
2022/03/23 04:08:05;;;;;;;3.38;3.15;;;23.20;30.50;;;;;;5079492;28;20040;-62
2022/03/23 04:10:33;;;;;;;3.22;2.30;;;23.20;30.60;;;;;;5071043;28;20048;-62
2022/03/23 04:13:00;;;;;;;2.83;2.65;;;23.20;30.50;;;;;;5073649;28;20697;-63
2022/03/23 04:15:27;;;;;;;3.03;2.50;;;23.20;30.50;;;;;;5074741;28;20054;-63
2022/03/23 04:17:55;;;;;;;3.53;2.85;;;23.20;30.60;;;;;;5072229;28;20131;-63
2022/03/23 04:20:23;;;;;;;4.10;3.08;;;23.30;30.70;;;;;;5074340;28;20116;-63
2022/03/23 04:22:52;;;;;;;4.97;1.90;;;23.20;30.60;;;;;;5071092;28;20190;-63
2022/03/23 04:25:19;;;;;;;2.53;2.10;;;23.30;30.70;;;;;;5073735;28;20059;-63
2022/03/23 04:27:48;;;;;;;3.10;2.25;;;23.30;30.70;;;;;;5073985;28;20121;-63
2022/03/23 04:30:16;;;;;;;2.25;2.10;;;23.20;30.70;;;;;;5076705;28;20609;-63
2022/03/23 04:32:44;;;;;;;3.72;2.72;;;23.20;30.70;;;;;;5074129;28;20044;-63
2022/03/23 04:35:12;;;;;;;2.17;1.88;;;23.30;30.50;;;;;;5074153;28;20105;-63
2022/03/23 04:37:40;;;;;;;2.80;2.53;;;23.30;30.80;;;;;;5076382;28;20048;-63
2022/03/23 04:40:11;;;;;;;2.28;2.15;;;23.20;30.80;;;;;;5081175;28;20617;-63
2022/03/23 04:42:38;;;;;;;2.17;2.03;;;23.20;30.80;;;;;;5078382;28;20059;-63
2022/03/23 04:45:07;;;;;;;4.38;2.28;;;23.30;30.90;;;;;;5078237;28;20037;-62
2022/03/23 04:47:34;;;;;;;2.10;2.00;;;23.30;30.90;;;;;;5080868;28;20049;-61
2022/03/23 04:50:02;;;;;;;2.50;2.30;;;23.20;30.90;;;;;;5077845;28;20823;-63
2022/03/23 04:52:30;;;;;;;4.03;2.28;;;23.20;31.00;;;;;;5078535;28;20473;-63
2022/03/23 04:54:59;;;;;;;2.72;2.60;;;23.30;31.20;;;;;;5077076;28;20033;-63
2022/03/23 04:57:28;;;;;;;1.88;1.73;;;23.20;31.20;;;;;;5078742;28;20072;-64
2022/03/23 04:59:58;;;;;;;4.50;1.50;;;23.20;31.20;;;;;;5081041;28;20035;-63
2022/03/23 05:02:26;;;;;;;2.42;1.70;;;23.20;31.20;;;;;;5077833;28;20131;-62
2022/03/23 05:04:53;;;;;;;4.22;2.28;;;23.20;31.20;;;;;;5074707;28;20149;-63
2022/03/23 05:07:21;;;;;;;2.13;1.90;;;23.20;31.20;;;;;;5079426;28;20096;-61
2022/03/23 05:09:48;;;;;;;1.88;1.55;;;23.20;31.20;;;;;;5080970;28;20042;-62
2022/03/23 05:12:15;;;;;;;1.85;1.75;;;23.20;31.20;;;;;;5082386;28;20496;-63
2022/03/23 05:14:43;;;;;;;3.03;1.73;;;23.20;31.20;;;;;;5075389;28;20045;-63
2022/03/23 05:17:11;;;;;;;1.83;1.73;;;23.20;31.20;;;;;;5077390;28;20040;-62
2022/03/23 05:19:38;;;;;;;2.05;1.88;;;23.20;31.20;;;;;;5073845;28;20628;-63
2022/03/23 05:22:05;;;;;;;0.82;0.82;;;23.20;31.30;;;;;;5079112;28;20450;-63
2022/03/23 05:24:33;;;;;;;2.60;2.05;;;23.20;31.30;;;;;;5077514;28;20040;-63
2022/03/23 05:27:00;;;;;;;3.83;1.52;;;23.20;31.30;;;;;;5082795;28;20163;-62
2022/03/23 05:29:27;;;;;;;4.60;1.58;;;23.20;31.30;;;;;;5084100;28;20878;-64
2022/03/23 05:31:55;;;;;;;3.15;1.38;;;23.20;31.30;;;;;;5074834;28;20124;-63
2022/03/23 05:34:23;;;;;;;2.25;1.52;;;23.20;31.40;;;;;;5072574;28;20044;-64
2022/03/23 05:36:50;;;;;;;1.83;1.60;;;23.10;31.20;;;;;;5076526;28;21514;-64
2022/03/23 05:39:18;;;;;;;3.30;2.30;;;23.20;31.30;;;;;;5079939;28;20029;-64
2022/03/23 05:41:45;;;;;;;1.88;1.38;;;23.20;31.30;;;;;;5077371;28;20109;-63
2022/03/23 05:44:12;;;;;;;2.70;2.50;;;23.20;31.30;;;;;;5074092;28;20036;-63
2022/03/23 05:46:39;;;;;;;1.77;1.67;;;23.20;31.30;;;;;;5077410;28;20059;-63
2022/03/23 05:49:08;;;;;;;2.45;1.60;;;23.20;31.40;;;;;;5075829;28;20412;-62
2022/03/23 05:51:35;;;;;;;1.60;1.50;;;23.20;31.40;;;;;;5081076;28;20040;-62
2022/03/23 05:54:03;;;;;;;2.33;2.10;;;23.20;31.40;;;;;;5078081;28;20086;-64
2022/03/23 05:56:30;;;;;;;1.75;1.65;;;23.20;31.40;;;;;;5080230;28;20052;-63
2022/03/23 05:58:57;;;;;;;3.35;2.47;;;23.20;31.40;;;;;;5077242;28;20672;-63
2022/03/23 06:01:25;;;;;;;2.20;1.52;;;23.20;31.40;;;;;;5076269;28;20063;-63
2022/03/23 06:03:52;;;;;;;2.63;1.45;;;23.20;31.40;;;;;;5075643;28;20051;-63
2022/03/23 06:06:21;;;;;;;2.78;2.58;;;23.20;31.40;;;;;;5078116;28;20032;-63
2022/03/23 06:08:48;;;;;;;4.22;2.47;;;23.20;31.30;;;;;;5077458;28;20036;-64
2022/03/23 06:11:16;;;;;;;1.95;1.70;;;23.20;31.40;;;;;;5079879;28;20054;-63
2022/03/23 06:13:44;;;;;;;2.70;1.65;;;23.20;31.40;;;;;;5071218;28;20044;-63
2022/03/23 06:16:11;;;;;;;2.58;2.38;;;23.20;31.40;;;;;;5075848;28;20043;-63
2022/03/23 06:18:40;;;;;;;4.50;1.80;;;23.20;31.40;;;;;;5077466;28;20043;-63
2022/03/23 06:21:07;;;;;;;3.58;2.03;;;23.30;31.50;;;;;;5079275;28;20068;-64
2022/03/23 06:23:36;;;;;;;1.85;1.70;;;23.20;31.50;;;;;;5071947;28;20040;-64
2022/03/23 06:26:05;;;;;;;1.75;1.42;;;23.30;31.60;;;;;;5079196;28;20094;-64
2022/03/23 06:28:33;;;;;;;2.25;1.80;;;23.20;31.50;;;;;;5077086;28;20047;-63
2022/03/23 06:31:00;;;;;;;2.40;2.17;;;23.20;31.50;;;;;;5077997;28;20127;-63
2022/03/23 06:33:28;;;;;;;5.05;2.85;;;23.30;31.60;;;;;;5077035;28;20040;-64
2022/03/23 06:35:55;;;;;;;2.05;1.65;;;23.30;31.50;;;;;;5075970;28;20146;-64
2022/03/23 06:38:22;;;;;;;2.88;2.40;;;23.30;31.50;;;;;;5078691;28;20607;-64
2022/03/23 06:40:51;;;;;;;3.40;1.60;;;23.30;31.40;;;;;;5078295;28;20172;-64
2022/03/23 06:43:18;;;;;;;1.55;1.45;;;23.30;32.00;;;;;;5073997;28;20036;-64
2022/03/23 06:45:46;;;;;;;2.88;1.55;;;23.30;31.50;;;;;;5077751;28;20043;-64
2022/03/23 06:48:13;;;;;;;2.72;1.52;;;23.30;31.50;;;;;;5079635;28;20122;-64
2022/03/23 06:50:40;;;;;;;1.65;1.55;;;23.30;31.50;;;;;;5078090;28;20050;-64
2022/03/23 06:53:07;;;;;;;4.10;2.03;;;23.30;31.50;;;;;;5076060;28;20610;-64
2022/03/23 06:55:35;;;;;;;1.77;1.70;;;23.30;31.50;;;;;;5078084;28;20052;-66
2022/03/23 06:58:04;;;;;;;2.65;1.33;;;23.30;31.50;;;;;;5077006;28;20101;-64
2022/03/23 07:00:31;;;;;;;1.73;1.67;;;23.30;31.50;;;;;;5078045;28;20044;-64
2022/03/23 07:02:59;;;;;;;3.35;1.98;;;23.30;31.40;;;;;;5073581;28;20083;-64
2022/03/23 07:05:26;;;;;;;2.20;2.10;;;23.40;31.40;;;;;;5073652;28;20056;-65
2022/03/23 07:10:39;;;;;;;2.72;2.40;;;23.40;31.50;;;;;;5078614;28;20063;-65
2022/03/23 07:13:07;;;;;;;2.45;1.83;;;23.40;31.30;;;;;;5072664;28;20040;-64
2022/03/23 07:15:34;;;;;;;2.17;1.95;;;23.40;31.20;;;;;;5075626;28;20055;-63
2022/03/23 07:18:01;;;;;;;4.22;2.60;;;23.40;31.20;;;;;;5077395;28;20040;-62
2022/03/23 07:20:29;;;;;;;3.95;2.05;;;23.40;31.20;;;;;;5078731;28;20044;-62
2022/03/23 07:22:56;;;;;;;5.68;2.63;;;23.50;31.30;;;;;;5073890;28;20098;-62
2022/03/23 07:25:24;;;;;;;3.17;2.03;;;23.50;31.20;;;;;;5076368;28;20044;-62
2022/03/23 07:27:51;;;;;;;3.90;1.35;;;23.50;31.30;;;;;;5076035;28;20043;-53
2022/03/23 07:30:20;;;;;;;2.95;1.73;;;23.50;31.20;;;;;;5069272;28;20054;-53
2022/03/23 07:32:47;;;;;;;19.52;2.20;;;23.50;31.50;;;;;;5079110;28;20469;-44
2022/03/23 07:35:14;;;;;;;17.65;3.10;;;23.50;31.70;;;;;;5077341;28;20076;-51
2022/03/23 07:37:41;;;;;;;22.75;2.30;;;23.60;32.10;;;;;;5074251;28;20106;-56
2022/03/23 07:40:10;;;;;;;12.77;2.40;;;23.60;32.40;;;;;;5073196;28;20826;-53
2022/03/23 07:42:37;;;;;;;11.40;2.53;;;23.60;32.40;;;;;;5075232;28;20048;-51
2022/03/23 07:45:06;;;;;;;16.70;2.42;;;23.60;32.50;;;;;;5080504;28;20123;-52
2022/03/23 07:47:35;;;;;;;9.82;3.33;;;23.50;32.50;;;;;;5071810;28;20052;-56
2022/03/23 07:50:02;;;;;;;9.15;1.92;;;23.50;32.50;;;;;;5073959;28;20501;-50
2022/03/23 07:52:29;;;;;;;9.07;2.38;;;23.50;32.50;;;;;;5075298;28;20504;-51
2022/03/23 07:54:56;;;;;;;6.13;1.55;;;23.50;32.60;;;;;;5072493;28;20051;-50
2022/03/23 07:57:23;;;;;;;6.93;2.00;;;23.40;32.60;;;;;;5075796;28;20058;-50
2022/03/23 07:59:51;;;;;;;8.30;2.03;;;23.40;32.50;;;;;;5066820;28;20048;-48
2022/03/23 08:02:18;;;;;;;5.70;2.28;;;23.40;32.50;;;;;;5078079;28;20055;-49
2022/03/23 08:04:47;;;;;;;15.32;2.10;;;23.40;32.50;;;;;;5069643;28;20131;-52
2022/03/23 08:07:14;;;;;;;3.78;1.85;;;23.30;32.50;;;;;;5066610;28;20046;-51
2022/03/23 08:09:41;;;;;;;9.90;3.40;;;23.30;32.50;;;;;;5076615;28;20040;-52
2022/03/23 08:12:09;;;;;;;4.57;2.47;;;23.30;32.60;;;;;;5075553;28;20063;-51
2022/03/23 08:14:36;;;;;;;2.60;1.48;;;23.30;32.60;;;;;;5074447;28;20044;-52
2022/03/23 08:17:03;;;;;;;3.33;1.92;;;23.20;32.40;;;;;;5072929;28;20496;-54
2022/03/23 08:19:30;;;;;;;15.30;2.13;;;23.20;32.50;;;;;;5069562;28;20095;-55
2022/03/23 08:21:59;;;;;;;6.85;1.38;;;23.20;32.50;;;;;;5066799;28;20040;-56
2022/03/23 08:24:26;;;;;;;5.45;1.77;;;23.20;32.50;;;;;;5069475;28;20693;-55
2022/03/23 08:26:53;;;;;;;3.45;1.65;;;23.20;32.50;;;;;;5076265;28;20076;-54
2022/03/23 08:29:20;;;;;;;9.80;1.65;;;23.10;32.30;;;;;;5069703;28;20101;-57
2022/03/23 08:31:47;;;;;;;5.72;1.70;;;23.10;32.20;;;;;;5072312;28;20059;-50
2022/03/23 08:34:14;;;;;;;4.57;1.63;;;23.10;32.30;;;;;;5068527;28;20128;-53
2022/03/23 08:36:43;;;;;;;3.25;2.10;;;23.10;32.50;;;;;;5074138;28;20055;-52
2022/03/23 08:39:11;;;;;;;2.70;1.58;;;23.10;32.60;;;;;;5066876;28;20079;-52
2022/03/23 08:41:38;;;;;;;2.00;1.65;;;23.10;32.50;;;;;;5074211;28;20095;-54
2022/03/23 08:44:06;;;;;;;3.67;1.23;;;23.00;32.40;;;;;;5078290;28;20051;-53
2022/03/23 08:46:33;;;;;;;3.90;2.10;;;23.00;32.40;;;;;;5069783;28;20151;-53
2022/03/23 08:49:00;;;;;;;1.45;1.35;;;23.00;32.30;;;;;;5067572;28;20036;-51
2022/03/23 08:51:28;;;;;;;1.17;1.08;;;23.00;32.30;;;;;;5066811;28;20047;-51
2022/03/23 08:53:55;;;;;;;3.70;1.45;;;23.00;32.30;;;;;;5076642;28;20582;-52
2022/03/23 08:56:23;;;;;;;3.72;1.73;;;23.00;32.30;;;;;;5072528;28;20400;-52
2022/03/23 08:58:50;;;;;;;1.75;1.23;;;23.00;32.30;;;;;;5069452;28;20051;-54
2022/03/23 09:01:18;;;;;;;3.85;1.25;;;23.00;32.30;;;;;;5070100;28;20040;-55
2022/03/23 09:03:45;;;;;;;2.08;1.90;;;23.00;32.30;;;;;;5079957;28;20052;-55
2022/03/23 09:06:13;;;;;;;1.48;1.42;;;23.00;32.20;;;;;;5071913;28;20147;-55
2022/03/23 09:08:40;;;;;;;4.25;2.38;;;23.00;32.20;;;;;;5069563;28;20840;-52
2022/03/23 09:11:07;;;;;;;3.25;1.48;;;22.90;32.10;;;;;;5069448;28;20638;-51
2022/03/23 09:13:36;;;;;;;1.88;1.50;;;22.90;32.80;;;;;;5074389;28;20509;-54
2022/03/23 09:16:03;;;;;;;3.00;1.42;;;22.90;32.30;;;;;;5064594;28;20041;-52
2022/03/23 09:18:31;;;;;;;2.40;1.50;;;22.90;32.30;;;;;;5074592;28;20047;-53
2022/03/23 09:20:58;;;;;;;1.85;1.42;;;22.90;32.30;;;;;;5077243;28;20428;-52
2022/03/23 09:23:25;;;;;;;4.13;1.35;;;22.90;32.40;;;;;;5074566;28;20467;-51
2022/03/23 09:25:53;;;;;;;1.40;1.10;;;23.00;33.00;;;;;;5072649;28;20139;-51
2022/03/23 09:28:21;;;;;;;2.13;1.25;;;23.00;32.20;;;;;;5085375;28;20504;-55
2022/03/23 09:30:50;;;;;;;7.10;1.85;;;23.00;32.10;;;;;;5075731;28;20405;-53
2022/03/23 09:33:17;;;;;;;3.38;1.55;;;23.00;32.00;;;;;;5076952;28;20043;-52
2022/03/23 09:35:44;;;;;;;2.13;2.03;;;23.00;32.00;;;;;;5089056;28;20105;-54
2022/03/23 09:38:12;;;;;;;3.53;1.50;;;22.90;32.10;;;;;;5085636;28;20499;-54
2022/03/23 09:40:40;;;;;;;2.08;1.20;;;23.00;32.00;;;;;;5075985;28;20035;-52
2022/03/23 09:43:09;;;;;;;1.38;1.30;;;23.00;31.90;;;;;;5077300;28;20047;-53
2022/03/23 09:48:26;;;;;;;1.38;1.25;;;23.00;31.80;;;;;;5071107;28;20513;-52
2022/03/23 09:50:55;;;;;;;1.65;1.42;;;23.00;31.80;;;;;;5078002;28;20608;-52
2022/03/23 09:53:24;;;;;;;2.15;1.20;;;23.10;32.10;;;;;;5079484;28;20082;-50
2022/03/23 09:55:53;;;;;;;3.25;1.10;;;23.10;32.00;;;;;;5076594;28;20047;-54
2022/03/23 09:58:21;;;;;;;1.58;1.48;;;23.10;31.90;;;;;;5072305;28;20060;-54
2022/03/23 10:00:49;;;;;;;2.38;1.75;;;23.10;31.90;;;;;;5076002;28;20048;-53
2022/03/23 10:03:51;;;;;;;2.28;1.42;;;23.10;31.80;;;;;;5071813;28;20530;-52
2022/03/23 10:06:47;;;;;;;1.55;0.98;;;23.10;31.80;;;;;;5070848;28;20052;-50
2022/03/23 10:09:55;;;;;;;1.63;0.80;;;23.10;32.10;;;;;;5072508;28;20053;-51
2022/03/23 10:13:05;;;;;;;3.05;1.42;;;23.20;31.90;;;;;;5070705;28;20055;-53
2022/03/23 10:16:37;;;;;;;2.15;0.93;;;23.10;31.70;;;;;;5070817;28;20044;-51
2022/03/23 10:19:05;;;;;;;2.08;1.10;;;23.20;32.00;;;;;;5082938;28;20040;-53
2022/03/23 10:21:36;;;;;;;1.60;0.98;;;23.20;31.90;;;;;;5067119;28;20091;-51
2022/03/23 10:24:33;;;;;;;3.65;1.70;;;23.20;32.10;;;;;;5073911;28;20114;-51
2022/03/23 10:27:05;;;;;;;1.05;0.65;;;23.30;32.10;;;;;;5074811;28;20055;-49
2022/03/23 10:29:32;;;;;;;2.33;1.35;;;23.30;32.20;;;;;;5072122;28;20412;-51
2022/03/23 10:32:02;;;;;;;3.22;0.88;;;23.30;32.10;;;;;;5073537;28;20036;-52
2022/03/23 10:34:51;;;;;;;1.45;1.10;;;23.30;32.00;;;;;;5072950;28;20089;-50
2022/03/23 10:37:28;;;;;;;3.90;0.80;;;23.40;32.00;;;;;;5067918;28;20040;-51
2022/03/23 10:39:57;;;;;;;1.23;1.15;;;23.40;32.00;;;;;;5086501;28;20040;-53
2022/03/23 10:42:27;;;;;;;0.93;0.93;;;23.50;32.10;;;;;;5083102;28;20145;-50
2022/03/23 10:45:08;;;;;;;2.47;1.15;;;23.50;32.00;;;;;;5081812;28;20097;-54
2022/03/23 10:47:37;;;;;;;2.22;1.25;;;23.60;31.90;;;;;;5069211;28;20051;-52
2022/03/23 10:50:11;;;;;;;2.05;1.33;;;23.60;31.90;;;;;;5078814;28;20739;-50
2022/03/23 10:52:55;;;;;;;0.70;0.70;;;23.60;31.80;;;;;;5068072;28;20032;-52
2022/03/23 10:55:24;;;;;;;1.02;1.02;;;23.70;31.70;;;;;;5079355;28;20086;-54
2022/03/23 10:58:25;;;;;;;1.83;0.90;;;23.70;31.70;;;;;;5081129;28;20047;-51
2022/03/23 11:01:12;;;;;;;3.33;0.93;;;23.70;32.30;;;;;;5071320;28;20197;-50
2022/03/23 11:03:42;;;;;;;1.65;0.88;;;23.70;31.60;;;;;;5066206;28;20263;-50
2022/03/23 11:06:11;;;;;;;3.55;1.42;;;23.80;31.50;;;;;;5071500;28;20530;-54
2022/03/23 11:08:43;;;;;;;1.10;0.95;;;23.80;31.30;;;;;;5079523;28;20044;-54
2022/03/23 11:16:46;;;;;;;0.98;0.85;;;24.00;31.10;;;;;;5070408;28;20060;-53
2022/03/23 11:19:18;;;;;;;0.98;0.88;;;24.10;31.10;;;;;;5078060;28;20047;-52
2022/03/23 11:22:00;;;;;;;1.42;1.30;;;24.10;31.10;;;;;;5066704;28;20036;-49
2022/03/23 11:24:31;;;;;;;1.00;1.00;;;24.20;31.10;;;;;;5070254;28;20064;-53
2022/03/23 11:27:00;;;;;;;1.13;1.00;;;24.20;31.10;;;;;;5077923;28;20135;-53
2022/03/23 11:29:28;;;;;;;1.27;1.27;;;24.30;31.10;;;;;;5072107;28;20596;-53
2022/03/23 11:31:56;;;;;;;1.50;1.02;;;24.30;31.10;;;;;;5074698;28;20512;-53
2022/03/23 11:34:25;;;;;;;2.75;1.38;;;24.40;31.10;;;;;;5070551;28;20044;-50
2022/03/23 11:36:54;;;;;;;1.08;0.85;;;24.40;31.00;;;;;;5065924;28;20047;-52
2022/03/23 11:39:23;;;;;;;0.70;0.68;;;24.50;31.00;;;;;;5068827;28;20059;-49
2022/03/23 11:41:53;;;;;;;1.27;1.17;;;24.50;30.90;;;;;;5072277;28;20873;-52
2022/03/23 11:44:21;;;;;;;1.92;0.68;;;24.60;30.90;;;;;;5082585;28;20048;-54
2022/03/23 11:46:50;;;;;;;1.15;0.77;;;24.60;30.90;;;;;;5082304;28;20059;-51
2022/03/23 11:49:26;;;;;;;1.30;0.80;;;24.70;30.90;;;;;;5071533;28;20044;-50
2022/03/23 11:52:11;;;;;;;1.95;0.85;;;24.70;30.80;;;;;;5084256;28;20036;-52
2022/03/23 11:58:03;;;;;;;2.92;0.68;;;24.80;30.70;;;;;;5067850;28;20052;-52
2022/03/23 12:00:40;;;;;;;1.05;1.05;;;24.90;30.70;;;;;;5070470;28;20057;-53
2022/03/23 12:03:08;;;;;;;0.65;0.63;;;24.90;31.20;;;;;;5071412;28;20408;-53
2022/03/23 12:05:48;;;;;;;0.68;0.65;;;25.00;30.60;;;;;;5083974;28;20055;-52
2022/03/23 12:08:49;;;;;;;4.50;0.90;;;25.00;30.60;;;;;;5069553;28;20120;-54
2022/03/23 12:11:34;;;;;;;1.10;0.85;;;25.10;30.50;;;;;;5066753;28;20504;-53
2022/03/23 12:14:03;;;;;;;1.67;1.05;;;25.20;30.50;;;;;;5072589;28;20127;-53
2022/03/23 12:17:10;;;;;;;0.68;0.60;;;25.20;30.50;;;;;;5076580;28;20087;-51
2022/03/23 12:20:05;;;;;;;1.40;0.93;;;25.20;30.40;;;;;;5073221;28;20072;-55
2022/03/23 12:23:00;;;;;;;0.65;0.60;;;25.30;30.40;;;;;;5068106;28;20380;-56
2022/03/23 12:25:34;;;;;;;1.17;0.73;;;25.30;30.40;;;;;;5076909;28;20548;-53
2022/03/23 12:28:26;;;;;;;0.73;0.60;;;25.40;30.40;;;;;;5071131;28;20032;-54
2022/03/23 12:31:10;;;;;;;1.40;0.80;;;25.40;30.30;;;;;;5063563;28;20070;-52
2022/03/23 12:34:07;;;;;;;1.05;0.82;;;25.50;30.40;;;;;;5074055;28;20060;-49
2022/03/23 12:39:25;;;;;;;0.50;0.50;;;25.60;30.30;;;;;;5071775;28;20044;-49
2022/03/23 12:41:53;;;;;;;1.90;0.70;;;25.60;30.30;;;;;;5076204;28;20051;-50
2022/03/23 12:44:29;;;;;;;0.70;0.63;;;25.70;30.30;;;;;;5080096;28;20040;-52
2022/03/23 12:46:56;;;;;;;;;;;25.70;30.20;;;;;;5078412;28;20039;-53
2022/03/23 12:58:02;;;;;;;0.85;0.80;;;25.90;30.20;;;;;;5064882;28;20131;-52
2022/03/23 13:00:31;;;;;;;0.95;0.95;;;25.90;30.10;;;;;;5077599;28;20044;-54
2022/03/23 13:03:47;;;;;;;2.40;0.63;;;26.00;30.20;;;;;;5088704;28;20051;-54
2022/03/23 13:06:17;;;;;;;0.63;0.63;;;26.10;30.10;;;;;;5078345;28;20051;-54
2022/03/23 13:08:51;;;;;;;0.57;0.52;;;26.10;30.10;;;;;;5079359;28;20055;-54
2022/03/23 13:11:23;;;;;;;2.58;1.55;;;26.10;30.00;;;;;;5072904;28;20500;-51
2022/03/23 13:13:52;;;;;;;0.68;0.30;;;26.20;30.00;;;;;;5079871;28;20040;-54
2022/03/23 13:16:22;;;;;;;1.38;0.75;;;26.30;30.10;;;;;;5073638;28;20043;-50
2022/03/23 13:18:50;;;;;;;4.43;0.82;;;26.30;30.00;;;;;;5074326;28;20047;-53
2022/03/23 13:21:21;;;;;;;0.82;0.70;;;26.40;30.00;;;;;;5087613;28;20097;-54
2022/03/23 13:23:49;;;;;;;0.65;0.60;;;26.40;29.90;;;;;;5077112;28;20486;-54
2022/03/23 13:26:18;;;;;;;2.38;0.73;;;26.50;29.90;;;;;;5078932;28;20051;-51
2022/03/23 13:28:47;;;;;;;2.30;0.77;;;26.60;30.00;;;;;;5072254;28;20572;-53
2022/03/23 13:31:16;;;;;;;0.60;0.60;;;26.60;29.90;;;;;;5070286;28;20036;-52
2022/03/23 13:33:44;;;;;;;1.85;0.75;;;26.70;29.90;;;;;;5076450;28;20040;-52